Time;durP1;ratioP1;P1;durP2;ratioP2;P2;SDS_P1;SDS_P2;PMS_P1;PMS_P2;Temp;Humidity;BMP_temperature;BMP_pressure;BME280_temperature;BME280_humidity;BME280_pressure;Samples;Min_cycle;Max_cycle;Signal;HPM_P1;HPM_P2
2022/12/11 00:01:10;;;;;;;38.55;16.70;;;2.20;99.90;;;1.79;100.00;100594.53;5138365;28;20070;-73
2022/12/11 00:03:44;;;;;;;40.20;15.65;;;2.20;99.90;;;1.81;100.00;100600.63;5123404;28;20052;-73
2022/12/11 00:06:19;;;;;;;28.20;11.95;;;2.20;99.90;;;1.83;100.00;100604.22;5121991;28;20051;-73
2022/12/11 00:08:53;;;;;;;29.80;12.98;;;2.20;99.90;;;1.82;100.00;100602.41;5120091;28;20058;-72
2022/12/11 00:11:25;;;;;;;27.90;12.43;;;2.20;99.90;;;1.85;100.00;100607.78;5121868;28;20180;-73
2022/12/11 00:13:58;;;;;;;34.15;14.20;;;2.20;99.90;;;1.85;100.00;100601.75;5123303;28;20142;-73
2022/12/11 00:16:31;;;;;;;31.23;13.85;;;2.20;99.90;;;1.84;100.00;100600.84;5137643;28;20051;-73
2022/12/11 00:19:04;;;;;;;38.10;14.45;;;2.20;99.90;;;1.75;100.00;100597.66;5131086;28;20047;-72
2022/12/11 00:21:36;;;;;;;30.02;13.48;;;2.20;99.90;;;1.76;100.00;100602.03;5121762;28;20065;-72
2022/12/11 00:24:09;;;;;;;35.58;12.15;;;2.20;99.90;;;1.77;100.00;100603.81;5122071;28;20421;-73
2022/12/11 00:26:42;;;;;;;34.50;13.65;;;2.20;99.90;;;1.78;100.00;100592.75;5122228;28;20053;-72
2022/12/11 00:29:15;;;;;;;28.90;11.82;;;2.20;99.90;;;1.81;100.00;100590.34;5126808;28;20051;-72
2022/12/11 00:31:47;;;;;;;34.67;12.27;;;2.20;99.90;;;1.86;100.00;100589.00;5123582;28;20051;-72
2022/12/11 00:34:20;;;;;;;27.30;11.07;;;2.20;99.90;;;1.89;100.00;100594.34;5122439;28;20130;-72
2022/12/11 00:36:52;;;;;;;29.50;11.88;;;2.30;99.90;;;1.94;100.00;100596.31;5123188;28;20078;-73
2022/12/11 00:39:25;;;;;;;33.15;12.10;;;2.30;99.90;;;1.97;100.00;100596.53;5123264;28;20050;-72
2022/12/11 00:41:57;;;;;;;28.40;11.25;;;2.30;99.90;;;2.00;100.00;100595.03;5123641;28;20054;-73
2022/12/11 00:44:29;;;;;;;32.08;12.68;;;2.30;99.90;;;2.02;100.00;100587.41;5123461;28;20497;-72
2022/12/11 00:47:01;;;;;;;32.88;10.60;;;2.40;99.90;;;2.03;100.00;100592.69;5129894;28;20451;-73
2022/12/11 00:49:35;;;;;;;31.98;11.25;;;2.40;99.90;;;2.05;100.00;100590.19;5143933;28;20047;-72
2022/12/11 00:52:07;;;;;;;31.73;12.45;;;2.40;99.90;;;2.02;100.00;100584.84;5130142;28;20051;-73
2022/12/11 00:54:39;;;;;;;37.10;12.93;;;2.40;99.90;;;1.98;100.00;100593.16;5129626;28;20411;-72
2022/12/11 00:57:11;;;;;;;41.97;15.00;;;2.40;99.90;;;1.94;100.00;100588.59;5128301;28;20074;-73
2022/12/11 00:59:43;;;;;;;38.90;13.77;;;2.30;99.90;;;1.90;100.00;100591.00;5130038;28;20051;-73
2022/12/11 01:02:15;;;;;;;36.75;13.38;;;2.30;99.90;;;1.89;100.00;100586.63;5119771;28;20071;-72
2022/12/11 01:04:49;;;;;;;34.63;11.45;;;2.30;99.90;;;1.90;100.00;100588.41;5129596;28;20051;-73
2022/12/11 01:07:21;;;;;;;33.42;11.20;;;2.30;99.90;;;1.92;100.00;100585.94;5112671;29;20420;-73
2022/12/11 01:12:42;;;;;;;30.73;11.00;;;2.30;99.90;;;1.89;100.00;100584.06;5194459;23;20503;-72
2022/12/11 01:15:15;;;;;;;31.90;10.27;;;2.30;99.90;;;1.92;100.00;100590.19;5144970;28;20053;-72
2022/12/11 01:17:47;;;;;;;30.88;10.15;;;2.30;99.90;;;1.95;100.00;100583.56;5141424;28;20132;-72
2022/12/11 01:20:23;;;;;;;28.25;10.35;;;2.30;99.90;;;1.96;100.00;100585.38;5146719;28;20712;-72
2022/12/11 01:22:57;;;;;;;25.02;8.45;;;2.40;99.90;;;1.99;100.00;100579.50;5132285;28;20396;-72
2022/12/11 01:25:31;;;;;;;32.13;9.38;;;2.30;99.90;;;1.99;100.00;100585.53;5128863;28;20043;-72
2022/12/11 01:28:03;;;;;;;38.55;11.35;;;2.30;99.90;;;1.98;100.00;100588.03;5144080;28;20147;-72
2022/12/11 01:30:36;;;;;;;32.90;11.15;;;2.30;99.90;;;1.99;100.00;100594.94;5142434;28;20496;-72
2022/12/11 01:33:08;;;;;;;37.50;11.45;;;2.40;99.90;;;1.97;100.00;100589.72;5142242;28;20046;-73
2022/12/11 01:35:42;;;;;;;32.10;10.85;;;2.30;99.90;;;1.93;100.00;100581.69;5148077;28;20120;-72
2022/12/11 01:38:14;;;;;;;37.17;10.98;;;2.30;99.90;;;1.92;100.00;100577.34;5148701;28;20047;-72
2022/12/11 01:40:47;;;;;;;32.85;9.60;;;2.30;99.90;;;1.89;100.00;100573.78;5149173;28;20046;-73
2022/12/11 01:43:20;;;;;;;32.60;11.50;;;2.30;99.90;;;1.90;100.00;100570.41;5145263;28;20496;-73
2022/12/11 01:45:52;;;;;;;33.65;11.20;;;2.30;99.90;;;1.88;100.00;100577.13;5149547;28;20053;-72
2022/12/11 01:48:28;;;;;;;34.65;11.65;;;2.30;99.90;;;1.88;100.00;100569.41;5149961;28;20599;-72
2022/12/11 01:51:05;;;;;;;38.08;10.48;;;2.30;99.90;;;1.89;100.00;100573.78;5149705;28;20310;-73
2022/12/11 01:53:40;;;;;;;35.05;10.90;;;2.20;99.90;;;1.88;100.00;100566.84;5148845;28;20439;-72
2022/12/11 01:56:13;;;;;;;31.95;9.35;;;2.20;99.90;;;1.93;100.00;100567.16;5148250;28;20054;-73
2022/12/11 01:58:52;;;;;;;30.83;9.63;;;2.30;99.90;;;1.99;100.00;100577.84;5160964;28;20050;-72
2022/12/11 02:01:32;;;;;;;42.20;11.63;;;2.30;99.90;;;2.00;100.00;100571.91;5145169;28;20039;-72
2022/12/11 02:04:05;;;;;;;32.60;10.85;;;2.30;99.90;;;2.00;100.00;100576.16;5144402;28;20054;-72
2022/12/11 02:06:41;;;;;;;31.63;11.07;;;2.30;99.90;;;1.98;100.00;100568.34;5146581;28;20043;-72
2022/12/11 02:09:17;;;;;;;33.70;10.77;;;2.40;99.90;;;1.97;100.00;100571.72;5146583;28;20055;-72
2022/12/11 02:11:58;;;;;;;42.83;11.70;;;2.30;99.90;;;1.95;100.00;100573.28;5145933;28;20049;-71
2022/12/11 02:14:39;;;;;;;41.33;11.50;;;2.40;99.90;;;1.94;100.00;100573.19;5146176;28;20043;-73
2022/12/11 02:17:17;;;;;;;40.60;11.27;;;2.30;99.90;;;1.94;100.00;100565.47;5146495;28;20051;-72
2022/12/11 02:20:00;;;;;;;35.90;11.05;;;2.30;99.90;;;1.93;100.00;100559.44;5146007;28;20129;-71
2022/12/11 02:23:05;;;;;;;35.63;11.35;;;2.30;99.90;;;1.93;100.00;100563.69;5146275;28;20043;-72
2022/12/11 02:25:51;;;;;;;32.17;11.10;;;2.30;99.90;;;1.95;100.00;100562.97;5145538;28;20043;-73
2022/12/11 02:28:30;;;;;;;40.95;11.95;;;2.30;99.90;;;1.97;100.00;100560.53;5145785;28;20047;-73
2022/12/11 02:31:09;;;;;;;43.50;12.30;;;2.30;99.90;;;1.94;100.00;100555.19;5145722;28;20050;-72
2022/12/11 02:33:46;;;;;;;42.00;12.40;;;2.30;99.90;;;1.91;100.00;100553.31;5145284;28;20047;-72
2022/12/11 02:36:20;;;;;;;34.30;11.77;;;2.30;99.90;;;1.89;100.00;100550.66;5144637;28;20054;-73
2022/12/11 02:38:56;;;;;;;38.30;10.52;;;2.30;99.90;;;1.93;100.00;100563.69;5144262;28;20066;-72
2022/12/11 02:41:30;;;;;;;35.45;11.60;;;2.30;99.90;;;1.95;100.00;100560.41;5145400;28;20080;-72
2022/12/11 02:44:05;;;;;;;33.53;10.77;;;2.30;99.90;;;1.99;100.00;100557.25;5145258;28;20504;-72
2022/12/11 02:46:38;;;;;;;40.22;11.45;;;2.30;99.90;;;2.02;100.00;100564.28;5145424;28;20054;-72
2022/12/11 02:49:12;;;;;;;33.42;10.73;;;2.30;99.90;;;2.03;100.00;100555.81;5145738;28;20047;-73
2022/12/11 02:51:44;;;;;;;37.60;10.65;;;2.30;99.90;;;2.05;100.00;100554.22;5144969;28;20050;-73
2022/12/11 02:54:21;;;;;;;30.90;10.23;;;2.40;99.90;;;2.05;100.00;100549.94;5143701;28;20047;-73
2022/12/11 02:56:59;;;;;;;36.17;10.70;;;2.40;99.90;;;2.07;100.00;100552.63;5145224;28;20070;-72
2022/12/11 02:59:38;;;;;;;41.05;12.93;;;2.40;99.90;;;2.06;100.00;100550.84;5144077;28;20050;-73
2022/12/11 03:02:12;;;;;;;39.42;11.80;;;2.40;99.90;;;2.02;100.00;100543.72;5143940;28;20043;-72
2022/12/11 03:04:47;;;;;;;33.92;10.70;;;2.40;99.90;;;2.01;100.00;100547.06;5144551;28;20487;-72
2022/12/11 03:07:24;;;;;;;35.88;11.77;;;2.40;99.90;;;2.02;100.00;100548.84;5144987;28;20046;-72
2022/12/11 03:09:56;;;;;;;32.33;10.90;;;2.40;99.90;;;2.03;100.00;100543.84;5145096;28;20484;-73
2022/12/11 03:12:32;;;;;;;34.13;11.00;;;2.40;99.90;;;2.07;100.00;100550.03;5144521;28;20503;-73
2022/12/11 03:15:10;;;;;;;37.92;11.43;;;2.40;99.90;;;2.08;100.00;100545.00;5144744;28;20042;-72
2022/12/11 03:17:56;;;;;;;31.95;10.75;;;2.40;99.90;;;2.12;100.00;100546.09;5145121;28;20043;-72
2022/12/11 03:20:38;;;;;;;34.70;11.73;;;2.40;99.90;;;2.13;100.00;100537.59;5144614;28;20058;-72
2022/12/11 03:23:21;;;;;;;32.75;10.27;;;2.40;99.90;;;2.14;100.00;100547.97;5150570;28;20042;-71
2022/12/11 03:25:57;;;;;;;29.48;9.85;;;2.50;99.90;;;2.15;100.00;100542.06;5164359;28;20089;-72
2022/12/11 03:28:37;;;;;;;31.58;10.25;;;2.50;99.90;;;2.15;100.00;100542.06;5164971;28;20045;-72
2022/12/11 03:31:17;;;;;;;34.13;10.70;;;2.50;99.90;;;2.13;100.00;100547.88;5165012;28;20384;-73
2022/12/11 03:33:53;;;;;;;33.50;11.05;;;2.50;99.90;;;2.08;100.00;100549.25;5164434;28;20046;-72
2022/12/11 03:36:30;;;;;;;32.58;10.57;;;2.40;99.90;;;2.06;100.00;100546.59;5164752;28;20513;-72
2022/12/11 03:39:09;;;;;;;32.42;11.77;;;2.40;99.90;;;2.08;100.00;100544.09;5164579;28;20054;-72
2022/12/11 03:41:42;;;;;;;35.15;10.90;;;2.40;99.90;;;2.08;100.00;100546.66;5164492;28;20541;-71
2022/12/11 03:44:16;;;;;;;32.47;10.27;;;2.40;99.90;;;2.11;100.00;100546.88;5164043;28;20038;-71
2022/12/11 03:46:52;;;;;;;30.45;10.50;;;2.40;99.90;;;2.13;100.00;100553.91;5163126;28;20052;-72
2022/12/11 03:49:30;;;;;;;28.67;9.05;;;2.40;99.90;;;2.13;100.00;100553.91;5164453;28;20223;-72
2022/12/11 03:52:04;;;;;;;34.13;10.35;;;2.50;99.90;;;2.13;100.00;100548.75;5164351;28;20577;-72
2022/12/11 03:54:38;;;;;;;29.63;9.73;;;2.50;99.90;;;2.13;100.00;100542.72;5164012;28;20046;-74
2022/12/11 03:57:15;;;;;;;27.80;9.32;;;2.50;99.90;;;2.15;100.00;100551.41;5164138;28;20121;-72
2022/12/11 03:59:48;;;;;;;30.58;9.43;;;2.50;99.90;;;2.15;100.00;100548.84;5164394;28;20046;-73
2022/12/11 04:02:21;;;;;;;30.92;9.25;;;2.50;99.90;;;2.16;100.00;100558.38;5162872;28;20085;-72
2022/12/11 04:04:53;;;;;;;27.33;8.75;;;2.50;99.90;;;2.16;100.00;100543.81;5163397;28;20049;-73
2022/12/11 04:07:25;;;;;;;28.30;9.35;;;2.50;99.90;;;2.17;100.00;100534.44;5164142;28;20046;-73
2022/12/11 04:09:58;;;;;;;26.52;9.00;;;2.50;99.90;;;2.17;100.00;100543.03;5164156;28;20125;-73
2022/12/11 04:12:30;;;;;;;28.15;10.27;;;2.50;99.90;;;2.18;100.00;100536.19;5163939;28;20046;-71
2022/12/11 04:15:02;;;;;;;28.52;9.30;;;2.50;99.90;;;2.18;100.00;100531.94;5162217;28;20249;-72
2022/12/11 04:26:11;;;;;;;23.25;8.07;;;2.50;99.90;;;2.16;100.00;100520.69;5163719;28;20042;-72
2022/12/11 04:28:44;;;;;;;;;;;2.50;99.90;;;2.15;100.00;100518.91;5162610;28;20058;-71
2022/12/11 04:31:19;;;;;;;23.58;8.02;;;2.50;99.90;;;2.17;100.00;100525.03;5163944;28;19961;-72
2022/12/11 04:33:52;;;;;;;25.48;8.23;;;2.50;99.90;;;2.17;100.00;100529.28;5163183;28;20507;-72
2022/12/11 04:36:25;;;;;;;28.02;9.02;;;2.50;99.90;;;2.16;100.00;100532.66;5163872;28;20129;-73
2022/12/11 04:38:57;;;;;;;30.58;9.73;;;2.50;99.90;;;2.15;100.00;100528.28;5163618;28;20125;-74
2022/12/11 04:41:29;;;;;;;32.20;11.65;;;2.50;99.90;;;2.10;100.00;100528.00;5163758;28;20049;-73
2022/12/11 04:44:01;;;;;;;33.63;10.25;;;2.50;99.90;;;2.07;100.00;100529.47;5163434;28;20050;-75
2022/12/11 04:46:34;;;;;;;33.55;10.40;;;2.40;99.90;;;2.06;100.00;100531.16;5163440;28;20050;-74
2022/12/11 04:49:08;;;;;;;33.53;10.95;;;2.40;99.90;;;2.05;100.00;100529.38;5163648;28;20046;-71
2022/12/11 04:51:40;;;;;;;27.00;9.90;;;2.40;99.90;;;2.05;100.00;100524.25;5163586;28;20133;-73
2022/12/11 04:54:13;;;;;;;34.40;11.18;;;2.40;99.90;;;2.06;100.00;100530.28;5162981;28;20046;-72
2022/12/11 04:56:45;;;;;;;30.52;11.10;;;2.40;99.90;;;2.06;100.00;100526.00;5162039;28;20133;-72
2022/12/11 04:59:17;;;;;;;28.33;8.65;;;2.40;99.90;;;2.08;100.00;100528.69;5163735;28;20097;-72
2022/12/11 05:01:49;;;;;;;30.30;10.30;;;2.40;99.90;;;2.08;100.00;100515.81;5163647;28;20058;-72
2022/12/11 05:04:22;;;;;;;28.63;9.13;;;2.40;99.90;;;2.08;100.00;100516.72;5162605;28;20121;-72
2022/12/11 05:06:54;;;;;;;26.38;8.90;;;2.40;99.90;;;2.08;100.00;100513.25;5163669;28;20513;-72
2022/12/11 05:09:27;;;;;;;27.92;9.75;;;2.40;99.90;;;2.09;100.00;100515.06;5163226;28;20128;-71
2022/12/11 05:11:59;;;;;;;26.73;10.00;;;2.40;99.90;;;2.09;100.00;100515.06;5163466;28;20479;-72
2022/12/11 05:14:31;;;;;;;29.90;10.13;;;2.40;99.90;;;2.11;100.00;100516.03;5163145;28;20042;-72
2022/12/11 05:17:03;;;;;;;28.05;8.45;;;2.40;99.90;;;2.13;100.00;100517.91;5162289;28;20388;-72
2022/12/11 05:19:37;;;;;;;27.48;8.63;;;2.40;99.90;;;2.15;100.00;100507.69;5163559;28;20074;-72
2022/12/11 05:22:09;;;;;;;26.40;9.52;;;2.50;99.90;;;2.17;100.00;100509.59;5163121;28;20100;-72
2022/12/11 05:24:41;;;;;;;32.83;10.10;;;2.50;99.90;;;2.20;100.00;100508.00;5177710;28;20054;-72
2022/12/11 05:27:14;;;;;;;26.48;9.20;;;2.50;99.90;;;2.21;100.00;100507.22;5162061;28;20069;-71
2022/12/11 05:29:46;;;;;;;28.92;9.82;;;2.50;99.90;;;2.21;100.00;100497.81;5163136;28;20057;-73
2022/12/11 05:32:18;;;;;;;25.15;8.50;;;2.50;99.90;;;2.22;100.00;100497.03;5164542;28;20046;-72
2022/12/11 05:34:52;;;;;;;27.27;9.20;;;2.50;99.90;;;2.22;100.00;100497.03;5166557;28;20049;-72
2022/12/11 05:37:24;;;;;;;27.88;9.45;;;2.50;99.90;;;2.22;100.00;100499.59;5167036;28;20049;-72
2022/12/11 05:39:56;;;;;;;25.77;7.93;;;2.60;99.90;;;2.21;100.00;100496.91;5166754;28;20395;-73
2022/12/11 05:42:28;;;;;;;28.52;9.18;;;2.50;99.90;;;2.21;100.00;100495.22;5166677;28;20533;-71
2022/12/11 05:45:00;;;;;;;32.13;9.43;;;2.50;99.90;;;2.20;100.00;100488.31;5166089;28;20058;-72
2022/12/11 05:47:32;;;;;;;32.05;9.85;;;2.50;99.90;;;2.20;100.00;100482.28;5165331;28;20042;-72
2022/12/11 05:50:07;;;;;;;31.05;9.18;;;2.50;99.90;;;2.20;100.00;100487.44;5166455;28;20054;-73
2022/12/11 05:52:39;;;;;;;32.53;10.25;;;2.50;99.90;;;2.19;100.00;100486.53;5165513;28;20137;-72
2022/12/11 05:55:11;;;;;;;32.17;9.82;;;2.50;99.90;;;2.18;100.00;100487.34;5166132;28;20038;-73
2022/12/11 05:57:43;;;;;;;28.65;9.50;;;2.50;99.90;;;2.18;100.00;100484.75;5166645;28;20042;-72
2022/12/11 06:00:15;;;;;;;31.13;9.52;;;2.50;99.90;;;2.20;100.00;100492.56;5165027;28;20149;-72
2022/12/11 06:02:47;;;;;;;26.85;8.80;;;2.50;99.90;;;2.21;100.00;100495.22;5166520;28;20050;-72
2022/12/11 06:05:21;;;;;;;31.20;9.65;;;2.50;99.90;;;2.24;100.00;100489.41;5165877;28;20511;-72
2022/12/11 06:07:53;;;;;;;30.13;9.77;;;2.60;99.90;;;2.26;100.00;100498.09;5166477;28;20048;-73
2022/12/11 06:10:25;;;;;;;29.40;9.55;;;2.60;99.90;;;2.27;100.00;100505.91;5166248;28;20050;-72
2022/12/11 06:12:57;;;;;;;32.35;9.27;;;2.60;99.90;;;2.24;100.00;100500.59;5166412;28;20451;-72
2022/12/11 06:15:29;;;;;;;29.88;9.30;;;2.60;99.90;;;2.26;100.00;100503.25;5165925;28;20608;-72
2022/12/11 06:18:01;;;;;;;27.58;9.60;;;2.60;99.90;;;2.25;100.00;100496.31;5166315;28;20046;-72
2022/12/11 06:20:35;;;;;;;29.75;10.60;;;2.60;99.90;;;2.28;100.00;100496.50;5164840;28;20058;-72
2022/12/11 06:23:07;;;;;;;27.13;9.10;;;2.60;99.90;;;2.27;100.00;100494.72;5166284;28;20042;-72
2022/12/11 06:25:40;;;;;;;26.17;8.43;;;2.60;99.90;;;2.25;100.00;100486.94;5165691;28;20051;-71
2022/12/11 06:28:13;;;;;;;26.60;7.85;;;2.60;99.90;;;2.26;100.00;100488.69;5166023;28;20467;-72
2022/12/11 06:30:45;;;;;;;25.63;8.65;;;2.60;99.90;;;2.27;100.00;100490.47;5165814;28;20043;-71
2022/12/11 06:33:17;;;;;;;27.13;8.73;;;2.60;99.90;;;2.26;100.00;100488.69;5165827;28;20046;-72
2022/12/11 06:35:50;;;;;;;30.05;9.30;;;2.60;99.90;;;2.25;100.00;100486.94;5165294;28;20034;-72
2022/12/11 06:38:23;;;;;;;33.78;8.70;;;2.60;99.90;;;2.27;100.00;100487.00;5165784;28;20130;-72
2022/12/11 06:40:56;;;;;;;29.75;9.75;;;2.60;99.90;;;2.25;100.00;100492.06;5165329;28;20082;-71
2022/12/11 06:43:28;;;;;;;27.48;8.38;;;2.60;99.90;;;2.22;100.00;100483.25;5165285;28;20046;-72
2022/12/11 06:46:04;;;;;;;34.45;9.35;;;2.60;99.90;;;2.22;100.00;100481.59;5163951;28;20584;-72
2022/12/11 06:48:37;;;;;;;29.55;9.35;;;2.60;99.90;;;2.23;100.00;100487.63;5165638;28;20521;-72
2022/12/11 06:51:13;;;;;;;34.50;11.05;;;2.60;99.90;;;2.22;100.00;100481.59;5164447;28;20077;-72
2022/12/11 06:53:52;;;;;;;30.40;10.73;;;2.60;99.90;;;2.21;100.00;100484.94;5165288;28;20038;-73
2022/12/11 06:56:24;;;;;;;33.75;10.40;;;2.50;99.90;;;2.19;100.00;100486.53;5165597;28;20042;-72
2022/12/11 06:58:57;;;;;;;27.17;8.80;;;2.50;99.90;;;2.20;100.00;100488.31;5165351;28;20046;-70
2022/12/11 07:01:29;;;;;;;27.05;9.70;;;2.50;99.90;;;2.22;100.00;100485.84;5180196;28;20053;-70
2022/12/11 07:04:01;;;;;;;32.15;9.60;;;2.50;99.90;;;2.22;100.00;100494.47;5164718;28;20050;-63
2022/12/11 07:06:34;;;;;;;34.25;11.13;;;2.50;99.90;;;2.21;100.00;100490.09;5163171;28;20042;-60
2022/12/11 07:09:07;;;;;;;38.15;12.02;;;2.50;99.90;;;2.21;100.00;100490.09;5164883;28;20042;-66
2022/12/11 07:11:39;;;;;;;31.88;9.77;;;2.60;99.90;;;2.22;100.00;100497.03;5163159;28;20046;-62
2022/12/11 07:14:11;;;;;;;29.73;10.48;;;2.60;99.90;;;2.21;100.00;100497.81;5139312;23;20559;-59
2022/12/11 07:16:44;;;;;;;29.33;10.50;;;2.50;99.90;;;2.24;100.00;100499.69;5131894;28;20049;-60
2022/12/11 07:19:16;;;;;;;30.45;10.77;;;2.50;99.90;;;2.24;100.00;100504.84;5124599;28;20047;-59
2022/12/11 07:21:49;;;;;;;33.75;10.07;;;2.60;99.90;;;2.25;100.00;100512.66;5124541;28;20496;-59
2022/12/11 07:24:21;;;;;;;32.05;10.60;;;2.60;99.90;;;2.28;100.00;100509.38;5124188;28;20058;-60
2022/12/11 07:26:54;;;;;;;30.73;9.73;;;2.60;99.90;;;2.29;100.00;100509.50;5124380;28;20126;-61
2022/12/11 07:29:26;;;;;;;30.65;9.07;;;2.60;99.90;;;2.28;100.00;100518.00;5124633;28;20075;-60
2022/12/11 07:31:58;;;;;;;29.75;8.90;;;2.60;99.90;;;2.29;100.00;100509.50;5124529;28;20404;-59
2022/12/11 07:34:30;;;;;;;30.67;9.43;;;2.60;99.90;;;2.30;100.00;100506.13;5123955;28;20043;-59
2022/12/11 07:37:04;;;;;;;31.52;11.05;;;2.60;99.90;;;2.30;100.00;100507.81;5124472;28;20520;-58
2022/12/11 07:39:36;;;;;;;30.65;9.85;;;2.60;99.90;;;2.31;100.00;100510.47;5124260;28;20130;-60
2022/12/11 07:42:08;;;;;;;30.75;9.75;;;2.60;99.90;;;2.31;100.00;100510.47;5124733;28;20058;-62
2022/12/11 07:44:40;;;;;;;29.10;9.63;;;2.60;99.90;;;2.30;100.00;100500.97;5123836;28;20057;-60
2022/12/11 07:47:12;;;;;;;33.47;10.18;;;2.60;99.90;;;2.29;100.00;100498.31;5124180;28;20047;-62
2022/12/11 07:49:44;;;;;;;35.00;11.43;;;2.60;99.90;;;2.26;100.00;100498.09;5123992;28;20050;-61
2022/12/11 07:52:17;;;;;;;29.23;9.90;;;2.60;99.90;;;2.24;100.00;100510.88;5124127;28;20075;-60
2022/12/11 07:54:49;;;;;;;40.50;12.57;;;2.50;99.90;;;2.21;100.00;100507.22;5123293;28;20531;-53
2022/12/11 07:57:22;;;;;;;41.00;12.60;;;2.60;99.90;;;2.18;100.00;100511.38;5124233;28;20035;-53
2022/12/11 07:59:54;;;;;;;35.85;11.90;;;2.60;99.90;;;2.19;100.00;100507.13;5124307;28;20051;-53
2022/12/11 08:02:26;;;;;;;41.38;12.45;;;2.50;99.90;;;2.20;100.00;100510.56;5123951;28;20055;-53
2022/12/11 08:04:58;;;;;;;41.88;13.27;;;2.50;99.90;;;2.22;100.00;100511.56;5124136;28;20045;-53
2022/12/11 08:07:34;;;;;;;36.88;12.60;;;2.60;99.90;;;2.23;100.00;100509.09;5124021;29;20070;-54
2022/12/11 08:10:07;;;;;;;45.97;15.82;;;2.60;99.90;;;2.22;100.00;100506.41;5122392;29;20070;-54
2022/12/11 08:12:39;;;;;;;34.50;11.95;;;2.60;99.90;;;2.26;100.00;100504.13;5123778;28;20055;-54
2022/12/11 08:15:11;;;;;;;43.22;13.57;;;2.60;99.90;;;2.41;100.00;100505.13;5123914;28;20047;-54
2022/12/11 08:17:43;;;;;;;41.50;14.10;;;2.80;99.90;;;2.39;100.00;100506.69;5123933;28;20061;-57
2022/12/11 08:20:15;;;;;;;43.80;14.00;;;2.80;99.90;;;2.35;100.00;100502.16;5122958;29;20050;-54
2022/12/11 08:22:49;;;;;;;40.35;14.07;;;2.80;99.90;;;2.33;100.00;100503.72;5097533;28;20053;-53
2022/12/11 08:25:21;;;;;;;36.05;12.70;;;2.70;99.90;;;2.45;100.00;100496.78;5122761;28;20043;-55
2022/12/11 08:27:53;;;;;;;39.65;12.77;;;2.90;99.90;;;2.47;100.00;100498.56;5123993;28;20047;-54
2022/12/11 08:30:25;;;;;;;42.28;14.82;;;2.90;99.90;;;2.42;100.00;100488.00;5124101;28;20051;-56
2022/12/11 08:32:58;;;;;;;38.22;12.73;;;2.80;99.90;;;2.40;100.00;100497.28;5123781;28;20058;-53
2022/12/11 08:35:30;;;;;;;42.50;15.10;;;2.80;99.90;;;2.35;100.00;100496.13;5123277;28;20040;-61
2022/12/11 08:38:04;;;;;;;36.20;13.13;;;2.80;99.90;;;2.32;100.00;100499.38;5122027;29;20066;-53
2022/12/11 08:40:36;;;;;;;41.63;13.32;;;2.70;99.90;;;2.27;100.00;100495.63;5123627;28;20061;-53
2022/12/11 08:43:08;;;;;;;46.97;15.98;;;2.70;99.90;;;2.19;100.00;100504.53;5123552;28;20043;-53
2022/12/11 08:45:40;;;;;;;46.78;15.70;;;2.60;99.90;;;2.17;100.00;100498.44;5123013;28;20435;-53
2022/12/11 08:48:12;;;;;;;47.50;16.75;;;2.60;99.90;;;2.19;100.00;100491.69;5123464;28;20631;-53
2022/12/11 08:50:44;;;;;;;48.00;15.65;;;2.60;99.90;;;2.20;100.00;100493.47;5123594;28;20047;-53
2022/12/11 08:53:20;;;;;;;44.70;15.90;;;2.60;99.90;;;2.22;100.00;100491.91;5123484;28;20501;-58
2022/12/11 08:55:52;;;;;;;49.90;16.45;;;2.60;99.90;;;2.41;100.00;100492.25;5122961;28;20050;-57
2022/12/11 08:58:24;;;;;;;49.90;17.73;;;2.80;99.90;;;2.65;100.00;100490.28;5123330;28;20427;-53
2022/12/11 09:00:57;;;;;;;46.22;15.70;;;2.90;99.90;;;2.68;100.00;100495.63;5123300;28;20404;-54
2022/12/11 09:03:29;;;;;;;39.55;14.73;;;3.00;99.90;;;2.68;100.00;100499.91;5122040;29;20066;-54
2022/12/11 09:06:05;;;;;;;45.00;15.00;;;3.00;99.90;;;2.65;100.00;100499.69;5124083;28;20039;-53
2022/12/11 09:08:39;;;;;;;46.25;14.90;;;3.00;99.90;;;2.53;100.00;100504.97;5127512;28;20043;-54
2022/12/11 09:11:13;;;;;;;40.28;14.13;;;2.90;99.90;;;2.48;100.00;100503.81;5127323;28;20043;-54
2022/12/11 09:13:46;;;;;;;46.80;14.90;;;2.90;99.90;;;2.45;100.00;100501.91;5126974;28;20054;-54
2022/12/11 09:16:21;;;;;;;36.83;13.02;;;2.80;99.90;;;2.41;100.00;100510.25;5127206;28;20043;-54
2022/12/11 09:18:55;;;;;;;;;;;2.80;99.90;;;2.41;100.00;100505.13;5127891;28;20051;-53
2022/12/11 09:21:29;;;;;;;34.72;12.65;;;2.80;99.90;;;2.40;100.00;100502.44;5125706;29;19933;-56
2022/12/11 09:24:03;;;;;;;42.00;14.38;;;2.80;99.90;;;2.40;100.00;100502.44;5126798;28;20051;-53
2022/12/11 09:26:35;;;;;;;38.72;12.95;;;2.80;99.90;;;2.38;100.00;100499.75;5127061;28;20079;-54
2022/12/11 09:29:09;;;;;;;51.42;17.55;;;2.70;99.90;;;2.31;100.00;100500.19;5126239;28;20055;-55
2022/12/11 09:31:42;;;;;;;43.47;15.23;;;2.70;99.90;;;2.23;100.00;100509.09;5122752;29;20316;-55
2022/12/11 09:34:14;;;;;;;48.67;14.93;;;2.70;99.90;;;2.21;100.00;100504.63;5124752;29;20049;-53
2022/12/11 09:36:46;;;;;;;44.22;14.65;;;2.60;99.90;;;2.21;100.00;100497.81;5126192;28;20047;-53
2022/12/11 09:39:20;;;;;;;38.35;13.00;;;2.60;99.90;;;2.25;100.00;100506.63;5125770;28;20058;-55
2022/12/11 09:42:01;;;;;;;34.58;11.55;;;2.70;99.90;;;2.28;100.00;100507.72;5064128;28;20054;-56
2022/12/11 09:44:40;;;;;;;28.40;11.90;;;2.60;99.90;;;2.29;100.00;100504.34;5130210;28;20070;-54
2022/12/11 09:47:34;;;;;;;42.63;13.35;;;2.70;99.90;;;2.29;100.00;100506.91;5118818;28;20090;-55
2022/12/11 09:50:16;;;;;;;34.33;12.60;;;2.70;99.90;;;2.30;100.00;100506.13;5126649;28;20077;-56
2022/12/11 09:53:03;;;;;;;36.88;12.02;;;2.70;99.90;;;2.31;100.00;100507.91;5126373;28;20051;-53
2022/12/11 09:55:50;;;;;;;46.20;13.38;;;2.70;99.90;;;2.31;100.00;100507.91;5126236;28;20470;-56
2022/12/11 09:58:30;;;;;;;35.75;10.77;;;2.70;99.90;;;2.32;100.00;100514.81;5126293;28;20404;-53
2022/12/11 10:01:09;;;;;;;41.05;14.45;;;2.70;99.90;;;2.33;100.00;100503.72;5126665;29;20050;-57
2022/12/11 10:04:02;;;;;;;39.05;13.55;;;2.70;99.90;;;2.38;100.00;100498.88;5126103;28;20059;-59
2022/12/11 10:06:43;;;;;;;38.03;13.57;;;2.70;99.90;;;2.38;100.00;100502.34;5126179;28;20107;-52
2022/12/11 10:09:26;;;;;;;43.28;14.60;;;2.70;99.90;;;2.38;100.00;100497.19;5124730;29;20073;-54
2022/12/11 10:12:17;;;;;;;40.65;13.77;;;2.70;99.90;;;2.36;100.00;100491.06;5125118;29;20416;-53
2022/12/11 10:15:09;;;;;;;39.47;13.13;;;2.80;99.90;;;2.34;100.00;100487.50;5124035;29;20118;-57
2022/12/11 10:17:43;;;;;;;37.25;12.40;;;2.70;99.90;;;2.35;100.00;100478.13;5125060;28;20086;-54
2022/12/11 10:20:23;;;;;;;40.28;12.63;;;2.70;99.90;;;2.34;100.00;100477.19;5125697;28;20055;-58
2022/12/11 10:22:57;;;;;;;29.40;11.48;;;2.70;99.90;;;2.36;100.00;100475.63;5126142;28;20133;-58
2022/12/11 10:25:32;;;;;;;40.22;13.48;;;2.70;99.90;;;2.37;100.00;100472.25;5125421;29;20054;-55
2022/12/11 10:28:13;;;;;;;36.83;12.45;;;2.80;99.90;;;2.39;100.00;100467.22;5125944;28;20067;-53
2022/12/11 10:30:49;;;;;;;35.08;11.50;;;2.80;99.90;;;2.43;100.00;100472.66;5125851;28;20564;-56
2022/12/11 10:33:26;;;;;;;37.35;11.95;;;2.80;99.90;;;2.47;100.00;100473.72;5125824;28;20053;-53
2022/12/11 10:35:59;;;;;;;43.20;13.25;;;2.80;99.90;;;2.49;100.00;100467.00;5125386;28;20047;-53
2022/12/11 10:38:34;;;;;;;38.53;13.48;;;2.80;99.90;;;2.47;100.00;100465.09;5124014;28;20416;-53
2022/12/11 10:41:12;;;;;;;43.28;13.63;;;2.80;99.90;;;2.45;100.00;100463.34;5124034;28;20043;-55
2022/12/11 10:43:48;;;;;;;38.03;13.27;;;2.80;99.90;;;2.49;100.00;100455.81;5116419;29;20039;-53
2022/12/11 10:46:23;;;;;;;38.67;12.68;;;2.90;99.90;;;2.53;100.00;100453.50;5115431;29;20391;-54
2022/12/11 10:48:58;;;;;;;39.80;12.52;;;2.90;99.90;;;2.61;100.00;100444.59;5115135;29;20496;-58